sensor_id;sensor_type;location;lat;lon;timestamp;temperature;humidity
60495;DHT22;46342;49.046;11.920;2023-09-19T00:01:28;18.70;64.80
60495;DHT22;46342;49.046;11.920;2023-09-19T00:03:56;18.70;64.80
60495;DHT22;46342;49.046;11.920;2023-09-19T00:06:23;18.70;64.80
60495;DHT22;46342;49.046;11.920;2023-09-19T00:08:51;18.80;65.00
60495;DHT22;46342;49.046;11.920;2023-09-19T00:11:17;18.80;65.10
60495;DHT22;46342;49.046;11.920;2023-09-19T00:13:43;18.70;65.10
60495;DHT22;46342;49.046;11.920;2023-09-19T00:16:10;18.80;65.20
60495;DHT22;46342;49.046;11.920;2023-09-19T00:18:37;18.80;65.40
60495;DHT22;46342;49.046;11.920;2023-09-19T00:21:03;18.80;65.50
60495;DHT22;46342;49.046;11.920;2023-09-19T00:23:32;18.80;65.40
60495;DHT22;46342;49.046;11.920;2023-09-19T00:25:59;18.80;65.40
60495;DHT22;46342;49.046;11.920;2023-09-19T00:28:24;18.80;65.60
60495;DHT22;46342;49.046;11.920;2023-09-19T00:30:50;18.80;65.50
60495;DHT22;46342;49.046;11.920;2023-09-19T00:33:16;18.80;65.60
60495;DHT22;46342;49.046;11.920;2023-09-19T00:35:52;18.80;65.60
60495;DHT22;46342;49.046;11.920;2023-09-19T00:38:19;18.90;66.80
60495;DHT22;46342;49.046;11.920;2023-09-19T00:40:52;18.90;65.80
60495;DHT22;46342;49.046;11.920;2023-09-19T00:43:18;18.90;65.70
60495;DHT22;46342;49.046;11.920;2023-09-19T00:45:47;18.90;65.70
60495;DHT22;46342;49.046;11.920;2023-09-19T00:48:14;18.90;66.00
60495;DHT22;46342;49.046;11.920;2023-09-19T00:50:42;18.90;65.80
60495;DHT22;46342;49.046;11.920;2023-09-19T00:53:09;18.90;66.20
60495;DHT22;46342;49.046;11.920;2023-09-19T00:55:36;18.90;65.80
60495;DHT22;46342;49.046;11.920;2023-09-19T00:58:03;18.90;66.10
60495;DHT22;46342;49.046;11.920;2023-09-19T01:00:28;18.90;65.90
60495;DHT22;46342;49.046;11.920;2023-09-19T01:02:54;18.90;65.90
60495;DHT22;46342;49.046;11.920;2023-09-19T01:05:20;18.90;65.90
60495;DHT22;46342;49.046;11.920;2023-09-19T01:07:46;19.00;66.00
60495;DHT22;46342;49.046;11.920;2023-09-19T01:10:15;18.90;66.00
60495;DHT22;46342;49.046;11.920;2023-09-19T01:12:47;18.90;66.10
60495;DHT22;46342;49.046;11.920;2023-09-19T01:15:28;19.00;66.90
60495;DHT22;46342;49.046;11.920;2023-09-19T01:21:28;19.00;67.20
60495;DHT22;46342;49.046;11.920;2023-09-19T01:29:44;19.00;67.20
60495;DHT22;46342;49.046;11.920;2023-09-19T01:32:11;19.00;67.20
60495;DHT22;46342;49.046;11.920;2023-09-19T01:37:11;19.00;66.70
60495;DHT22;46342;49.046;11.920;2023-09-19T01:39:36;19.00;66.10
60495;DHT22;46342;49.046;11.920;2023-09-19T01:42:24;19.00;66.10
60495;DHT22;46342;49.046;11.920;2023-09-19T01:45:02;19.00;67.40
60495;DHT22;46342;49.046;11.920;2023-09-19T01:47:33;18.90;66.70
60495;DHT22;46342;49.046;11.920;2023-09-19T01:50:12;19.00;66.10
60495;DHT22;46342;49.046;11.920;2023-09-19T01:52:49;19.00;66.90
60495;DHT22;46342;49.046;11.920;2023-09-19T01:55:19;19.00;67.30
60495;DHT22;46342;49.046;11.920;2023-09-19T01:57:54;19.00;66.30
60495;DHT22;46342;49.046;11.920;2023-09-19T02:00:24;18.90;67.10
60495;DHT22;46342;49.046;11.920;2023-09-19T02:02:51;19.00;66.30
60495;DHT22;46342;49.046;11.920;2023-09-19T02:05:25;18.90;66.20
60495;DHT22;46342;49.046;11.920;2023-09-19T02:07:54;19.00;67.10
60495;DHT22;46342;49.046;11.920;2023-09-19T02:10:21;19.00;66.90
60495;DHT22;46342;49.046;11.920;2023-09-19T02:12:47;19.00;66.40
60495;DHT22;46342;49.046;11.920;2023-09-19T02:15:12;19.00;66.40
60495;DHT22;46342;49.046;11.920;2023-09-19T02:17:41;19.00;66.40
60495;DHT22;46342;49.046;11.920;2023-09-19T02:20:08;19.00;66.40
60495;DHT22;46342;49.046;11.920;2023-09-19T02:22:36;19.00;66.50
60495;DHT22;46342;49.046;11.920;2023-09-19T02:25:02;19.00;67.20
60495;DHT22;46342;49.046;11.920;2023-09-19T02:27:30;19.00;66.10
60495;DHT22;46342;49.046;11.920;2023-09-19T02:29:56;19.00;66.30
60495;DHT22;46342;49.046;11.920;2023-09-19T02:32:22;19.00;66.40
60495;DHT22;46342;49.046;11.920;2023-09-19T02:34:48;19.00;66.50
60495;DHT22;46342;49.046;11.920;2023-09-19T02:37:14;19.00;66.50
60495;DHT22;46342;49.046;11.920;2023-09-19T02:39:41;19.00;66.60
60495;DHT22;46342;49.046;11.920;2023-09-19T02:42:07;19.00;66.50
60495;DHT22;46342;49.046;11.920;2023-09-19T02:44:33;19.00;66.50
60495;DHT22;46342;49.046;11.920;2023-09-19T02:46:59;19.00;66.50
60495;DHT22;46342;49.046;11.920;2023-09-19T02:49:24;19.00;66.70
60495;DHT22;46342;49.046;11.920;2023-09-19T02:51:50;19.00;67.50
60495;DHT22;46342;49.046;11.920;2023-09-19T02:54:17;19.00;66.60
60495;DHT22;46342;49.046;11.920;2023-09-19T02:56:43;19.00;66.60
60495;DHT22;46342;49.046;11.920;2023-09-19T02:59:08;19.00;66.70
60495;DHT22;46342;49.046;11.920;2023-09-19T03:01:35;19.00;67.60
60495;DHT22;46342;49.046;11.920;2023-09-19T03:04:02;19.00;66.60
60495;DHT22;46342;49.046;11.920;2023-09-19T03:06:28;19.00;66.60
60495;DHT22;46342;49.046;11.920;2023-09-19T03:08:56;19.00;66.70
60495;DHT22;46342;49.046;11.920;2023-09-19T03:11:22;19.00;67.30
60495;DHT22;46342;49.046;11.920;2023-09-19T03:13:54;19.00;66.30
60495;DHT22;46342;49.046;11.920;2023-09-19T03:16:20;19.00;67.30
60495;DHT22;46342;49.046;11.920;2023-09-19T03:18:50;19.00;66.50
60495;DHT22;46342;49.046;11.920;2023-09-19T03:21:16;19.00;66.70
60495;DHT22;46342;49.046;11.920;2023-09-19T03:23:43;19.00;66.70
60495;DHT22;46342;49.046;11.920;2023-09-19T03:26:11;19.00;66.90
60495;DHT22;46342;49.046;11.920;2023-09-19T03:28:38;18.90;66.60
60495;DHT22;46342;49.046;11.920;2023-09-19T03:31:05;18.90;66.50
60495;DHT22;46342;49.046;11.920;2023-09-19T03:33:31;18.90;66.80
60495;DHT22;46342;49.046;11.920;2023-09-19T03:35:58;19.00;67.30
60495;DHT22;46342;49.046;11.920;2023-09-19T03:38:25;19.00;66.40
60495;DHT22;46342;49.046;11.920;2023-09-19T03:40:51;18.90;66.50
60495;DHT22;46342;49.046;11.920;2023-09-19T03:43:16;18.90;66.50
60495;DHT22;46342;49.046;11.920;2023-09-19T03:45:42;18.90;66.60
60495;DHT22;46342;49.046;11.920;2023-09-19T03:48:11;18.90;66.60
60495;DHT22;46342;49.046;11.920;2023-09-19T03:50:37;18.90;67.20
60495;DHT22;46342;49.046;11.920;2023-09-19T03:53:03;18.90;66.70
60495;DHT22;46342;49.046;11.920;2023-09-19T03:55:29;18.90;66.80
60495;DHT22;46342;49.046;11.920;2023-09-19T03:57:57;18.90;66.80
60495;DHT22;46342;49.046;11.920;2023-09-19T04:00:23;18.80;66.70
60495;DHT22;46342;49.046;11.920;2023-09-19T04:02:52;18.80;66.60
60495;DHT22;46342;49.046;11.920;2023-09-19T04:05:18;18.90;66.80
60495;DHT22;46342;49.046;11.920;2023-09-19T04:07:43;18.90;66.90
60495;DHT22;46342;49.046;11.920;2023-09-19T04:10:10;18.90;66.90
60495;DHT22;46342;49.046;11.920;2023-09-19T04:12:37;18.80;66.90
60495;DHT22;46342;49.046;11.920;2023-09-19T04:15:06;18.80;66.80
60495;DHT22;46342;49.046;11.920;2023-09-19T04:17:32;18.80;66.80
60495;DHT22;46342;49.046;11.920;2023-09-19T04:19:59;18.90;67.90
60495;DHT22;46342;49.046;11.920;2023-09-19T04:22:24;18.80;66.80
60495;DHT22;46342;49.046;11.920;2023-09-19T04:24:50;18.80;66.90
60495;DHT22;46342;49.046;11.920;2023-09-19T04:27:15;18.70;67.70
60495;DHT22;46342;49.046;11.920;2023-09-19T04:29:41;18.80;67.00
60495;DHT22;46342;49.046;11.920;2023-09-19T04:32:07;18.90;67.00
60495;DHT22;46342;49.046;11.920;2023-09-19T04:34:33;18.80;67.00
60495;DHT22;46342;49.046;11.920;2023-09-19T04:37:00;18.80;67.00
60495;DHT22;46342;49.046;11.920;2023-09-19T04:39:26;18.70;67.80
60495;DHT22;46342;49.046;11.920;2023-09-19T04:41:52;18.90;68.10
60495;DHT22;46342;49.046;11.920;2023-09-19T04:44:18;18.90;67.20
60495;DHT22;46342;49.046;11.920;2023-09-19T04:46:44;18.80;67.00
60495;DHT22;46342;49.046;11.920;2023-09-19T04:49:11;18.80;67.10
60495;DHT22;46342;49.046;11.920;2023-09-19T04:51:37;18.80;67.00
60495;DHT22;46342;49.046;11.920;2023-09-19T04:54:04;18.80;67.00
60495;DHT22;46342;49.046;11.920;2023-09-19T04:56:29;18.80;67.20
60495;DHT22;46342;49.046;11.920;2023-09-19T04:58:55;18.70;67.00
60495;DHT22;46342;49.046;11.920;2023-09-19T05:01:20;18.80;67.20
60495;DHT22;46342;49.046;11.920;2023-09-19T05:03:48;18.80;67.20
60495;DHT22;46342;49.046;11.920;2023-09-19T05:06:18;18.80;67.20
60495;DHT22;46342;49.046;11.920;2023-09-19T05:08:44;18.70;67.10
60495;DHT22;46342;49.046;11.920;2023-09-19T05:11:09;18.80;67.20
60495;DHT22;46342;49.046;11.920;2023-09-19T05:13:35;18.80;67.20
60495;DHT22;46342;49.046;11.920;2023-09-19T05:16:00;18.80;67.20
60495;DHT22;46342;49.046;11.920;2023-09-19T05:18:29;18.80;67.20
60495;DHT22;46342;49.046;11.920;2023-09-19T05:20:55;18.80;67.20
60495;DHT22;46342;49.046;11.920;2023-09-19T05:23:21;18.80;67.10
60495;DHT22;46342;49.046;11.920;2023-09-19T05:25:47;18.80;67.10
60495;DHT22;46342;49.046;11.920;2023-09-19T05:28:12;18.80;67.20
60495;DHT22;46342;49.046;11.920;2023-09-19T05:30:40;18.80;67.10
60495;DHT22;46342;49.046;11.920;2023-09-19T05:33:06;18.80;67.20
60495;DHT22;46342;49.046;11.920;2023-09-19T05:35:33;18.80;67.20
60495;DHT22;46342;49.046;11.920;2023-09-19T05:38:00;18.80;67.10
60495;DHT22;46342;49.046;11.920;2023-09-19T05:40:26;18.80;67.30
60495;DHT22;46342;49.046;11.920;2023-09-19T05:42:52;18.80;67.00
60495;DHT22;46342;49.046;11.920;2023-09-19T05:45:18;18.70;66.90
60495;DHT22;46342;49.046;11.920;2023-09-19T05:47:50;18.80;67.00
60495;DHT22;46342;49.046;11.920;2023-09-19T05:50:16;18.80;67.00
60495;DHT22;46342;49.046;11.920;2023-09-19T05:52:43;18.70;66.90
60495;DHT22;46342;49.046;11.920;2023-09-19T05:55:17;18.70;66.80
60495;DHT22;46342;49.046;11.920;2023-09-19T05:57:43;18.80;66.90
60495;DHT22;46342;49.046;11.920;2023-09-19T06:00:09;18.70;66.90
60495;DHT22;46342;49.046;11.920;2023-09-19T06:02:37;18.70;66.90
60495;DHT22;46342;49.046;11.920;2023-09-19T06:05:04;18.80;67.00
60495;DHT22;46342;49.046;11.920;2023-09-19T06:07:34;18.70;66.90
60495;DHT22;46342;49.046;11.920;2023-09-19T06:10:05;18.70;66.90
60495;DHT22;46342;49.046;11.920;2023-09-19T06:12:32;18.70;67.30
60495;DHT22;46342;49.046;11.920;2023-09-19T06:15:03;18.60;66.90
60495;DHT22;46342;49.046;11.920;2023-09-19T06:17:30;18.60;67.00
60495;DHT22;46342;49.046;11.920;2023-09-19T06:19:56;18.60;67.10
60495;DHT22;46342;49.046;11.920;2023-09-19T06:22:22;18.60;67.30
60495;DHT22;46342;49.046;11.920;2023-09-19T06:24:47;18.60;67.50
60495;DHT22;46342;49.046;11.920;2023-09-19T06:27:13;18.60;67.60
60495;DHT22;46342;49.046;11.920;2023-09-19T06:29:39;18.50;67.50
60495;DHT22;46342;49.046;11.920;2023-09-19T06:32:08;18.60;67.80
60495;DHT22;46342;49.046;11.920;2023-09-19T06:34:35;18.70;68.30
60495;DHT22;46342;49.046;11.920;2023-09-19T06:37:01;18.70;67.90
60495;DHT22;46342;49.046;11.920;2023-09-19T06:39:28;18.70;67.90
60495;DHT22;46342;49.046;11.920;2023-09-19T06:41:54;18.80;68.10
60495;DHT22;46342;49.046;11.920;2023-09-19T06:44:19;18.80;68.10
60495;DHT22;46342;49.046;11.920;2023-09-19T06:46:47;18.80;68.10
60495;DHT22;46342;49.046;11.920;2023-09-19T06:49:17;18.80;68.00
60495;DHT22;46342;49.046;11.920;2023-09-19T06:51:42;18.90;68.10
60495;DHT22;46342;49.046;11.920;2023-09-19T06:54:09;19.00;68.20
60495;DHT22;46342;49.046;11.920;2023-09-19T06:56:35;18.90;68.00
60495;DHT22;46342;49.046;11.920;2023-09-19T06:59:00;18.90;68.00
60495;DHT22;46342;49.046;11.920;2023-09-19T07:01:27;18.90;68.00
60495;DHT22;46342;49.046;11.920;2023-09-19T07:03:53;19.10;68.10
60495;DHT22;46342;49.046;11.920;2023-09-19T07:06:19;19.00;68.00
60495;DHT22;46342;49.046;11.920;2023-09-19T07:08:44;19.10;68.10
60495;DHT22;46342;49.046;11.920;2023-09-19T07:11:10;19.10;68.00
60495;DHT22;46342;49.046;11.920;2023-09-19T07:13:37;19.20;68.30
60495;DHT22;46342;49.046;11.920;2023-09-19T07:16:03;19.20;68.30
60495;DHT22;46342;49.046;11.920;2023-09-19T07:18:29;19.20;68.40
60495;DHT22;46342;49.046;11.920;2023-09-19T07:20:58;19.30;68.50
60495;DHT22;46342;49.046;11.920;2023-09-19T07:23:30;19.30;68.70
60495;DHT22;46342;49.046;11.920;2023-09-19T07:26:00;19.30;68.40
60495;DHT22;46342;49.046;11.920;2023-09-19T07:28:26;19.40;68.30
60495;DHT22;46342;49.046;11.920;2023-09-19T07:30:52;19.40;68.20
60495;DHT22;46342;49.046;11.920;2023-09-19T07:33:18;19.50;68.20
60495;DHT22;46342;49.046;11.920;2023-09-19T07:35:47;19.50;68.00
60495;DHT22;46342;49.046;11.920;2023-09-19T07:38:13;19.50;68.20
60495;DHT22;46342;49.046;11.920;2023-09-19T07:40:39;19.50;68.00
60495;DHT22;46342;49.046;11.920;2023-09-19T07:43:05;19.60;68.90
60495;DHT22;46342;49.046;11.920;2023-09-19T07:45:32;19.70;68.00
60495;DHT22;46342;49.046;11.920;2023-09-19T07:47:58;19.70;67.80
60495;DHT22;46342;49.046;11.920;2023-09-19T07:50:25;19.80;67.60
60495;DHT22;46342;49.046;11.920;2023-09-19T07:52:52;19.90;67.60
60495;DHT22;46342;49.046;11.920;2023-09-19T07:55:19;19.90;67.20
60495;DHT22;46342;49.046;11.920;2023-09-19T07:57:48;19.90;67.00
60495;DHT22;46342;49.046;11.920;2023-09-19T08:00:15;19.90;66.80
60495;DHT22;46342;49.046;11.920;2023-09-19T08:02:40;19.90;66.70
60495;DHT22;46342;49.046;11.920;2023-09-19T08:05:08;19.90;66.70
60495;DHT22;46342;49.046;11.920;2023-09-19T08:07:38;19.90;66.60
60495;DHT22;46342;49.046;11.920;2023-09-19T08:10:04;20.00;66.70
60495;DHT22;46342;49.046;11.920;2023-09-19T08:12:36;20.00;66.60
60495;DHT22;46342;49.046;11.920;2023-09-19T08:15:04;20.00;66.70
60495;DHT22;46342;49.046;11.920;2023-09-19T08:17:34;20.10;66.90
60495;DHT22;46342;49.046;11.920;2023-09-19T08:20:00;20.10;66.80
60495;DHT22;46342;49.046;11.920;2023-09-19T08:22:26;20.20;67.10
60495;DHT22;46342;49.046;11.920;2023-09-19T08:24:53;20.20;67.10
60495;DHT22;46342;49.046;11.920;2023-09-19T08:27:18;20.30;67.30
60495;DHT22;46342;49.046;11.920;2023-09-19T08:29:44;20.40;67.30
60495;DHT22;46342;49.046;11.920;2023-09-19T08:32:11;20.50;67.30
60495;DHT22;46342;49.046;11.920;2023-09-19T08:34:37;20.60;67.10
60495;DHT22;46342;49.046;11.920;2023-09-19T08:37:04;20.60;66.60
60495;DHT22;46342;49.046;11.920;2023-09-19T08:39:30;20.70;66.20
60495;DHT22;46342;49.046;11.920;2023-09-19T08:42:00;20.70;66.00
60495;DHT22;46342;49.046;11.920;2023-09-19T08:44:26;20.80;65.50
60495;DHT22;46342;49.046;11.920;2023-09-19T08:47:06;20.80;65.60
60495;DHT22;46342;49.046;11.920;2023-09-19T08:50:23;20.90;64.80
60495;DHT22;46342;49.046;11.920;2023-09-19T08:52:34;20.90;64.60
60495;DHT22;46342;49.046;11.920;2023-09-19T08:55:03;20.90;64.40
60495;DHT22;46342;49.046;11.920;2023-09-19T08:57:36;20.90;64.60
60495;DHT22;46342;49.046;11.920;2023-09-19T09:00:05;20.90;64.40
60495;DHT22;46342;49.046;11.920;2023-09-19T09:02:39;20.90;64.20
60495;DHT22;46342;49.046;11.920;2023-09-19T09:05:08;20.90;63.60
60495;DHT22;46342;49.046;11.920;2023-09-19T09:07:38;20.90;63.20
60495;DHT22;46342;49.046;11.920;2023-09-19T09:10:04;20.90;63.00
60495;DHT22;46342;49.046;11.920;2023-09-19T09:12:30;20.80;62.90
60495;DHT22;46342;49.046;11.920;2023-09-19T09:14:56;20.80;62.80
60495;DHT22;46342;49.046;11.920;2023-09-19T09:17:26;20.80;62.70
60495;DHT22;46342;49.046;11.920;2023-09-19T09:19:55;20.70;62.00
60495;DHT22;46342;49.046;11.920;2023-09-19T09:22:21;20.80;62.30
60495;DHT22;46342;49.046;11.920;2023-09-19T09:24:54;20.70;62.50
60495;DHT22;46342;49.046;11.920;2023-09-19T09:27:20;20.70;62.20
60495;DHT22;46342;49.046;11.920;2023-09-19T09:29:47;20.60;63.40
60495;DHT22;46342;49.046;11.920;2023-09-19T09:32:30;20.60;62.60
60495;DHT22;46342;49.046;11.920;2023-09-19T09:35:01;20.60;62.60
60495;DHT22;46342;49.046;11.920;2023-09-19T09:37:28;20.60;63.90
60495;DHT22;46342;49.046;11.920;2023-09-19T09:39:57;20.60;62.90
60495;DHT22;46342;49.046;11.920;2023-09-19T09:42:34;20.60;62.80
60495;DHT22;46342;49.046;11.920;2023-09-19T09:45:19;20.60;61.80
60495;DHT22;46342;49.046;11.920;2023-09-19T09:48:02;20.60;62.00
60495;DHT22;46342;49.046;11.920;2023-09-19T09:50:33;20.60;62.50
60495;DHT22;46342;49.046;11.920;2023-09-19T09:53:29;20.60;62.40
60495;DHT22;46342;49.046;11.920;2023-09-19T09:56:02;20.70;62.00
60495;DHT22;46342;49.046;11.920;2023-09-19T09:58:32;20.60;62.70
60495;DHT22;46342;49.046;11.920;2023-09-19T10:00:59;20.60;62.60
60495;DHT22;46342;49.046;11.920;2023-09-19T10:03:38;20.60;62.60
60495;DHT22;46342;49.046;11.920;2023-09-19T10:06:06;20.70;63.10
60495;DHT22;46342;49.046;11.920;2023-09-19T10:08:36;20.70;62.50
60495;DHT22;46342;49.046;11.920;2023-09-19T10:11:15;20.80;62.70
60495;DHT22;46342;49.046;11.920;2023-09-19T10:13:42;20.80;61.80
60495;DHT22;46342;49.046;11.920;2023-09-19T10:16:11;20.80;62.30
60495;DHT22;46342;49.046;11.920;2023-09-19T10:18:38;20.90;62.40
60495;DHT22;46342;49.046;11.920;2023-09-19T10:21:09;20.90;63.40
60495;DHT22;46342;49.046;11.920;2023-09-19T10:23:36;21.00;62.30
60495;DHT22;46342;49.046;11.920;2023-09-19T10:26:04;21.00;62.50
60495;DHT22;46342;49.046;11.920;2023-09-19T10:28:30;21.10;62.70
60495;DHT22;46342;49.046;11.920;2023-09-19T10:30:57;21.10;62.70
60495;DHT22;46342;49.046;11.920;2023-09-19T10:33:25;21.20;62.70
60495;DHT22;46342;49.046;11.920;2023-09-19T10:35:51;21.40;62.40
60495;DHT22;46342;49.046;11.920;2023-09-19T10:38:24;21.40;62.70
60495;DHT22;46342;49.046;11.920;2023-09-19T10:40:51;21.40;61.70
60495;DHT22;46342;49.046;11.920;2023-09-19T10:43:19;21.50;62.00
60495;DHT22;46342;49.046;11.920;2023-09-19T10:45:46;21.60;61.90
60495;DHT22;46342;49.046;11.920;2023-09-19T10:48:15;21.60;61.90
60495;DHT22;46342;49.046;11.920;2023-09-19T10:50:51;21.60;62.00
60495;DHT22;46342;49.046;11.920;2023-09-19T10:53:18;21.60;61.60
60495;DHT22;46342;49.046;11.920;2023-09-19T10:55:59;21.70;62.10
60495;DHT22;46342;49.046;11.920;2023-09-19T10:58:30;21.80;61.30
60495;DHT22;46342;49.046;11.920;2023-09-19T11:01:00;21.90;61.90
60495;DHT22;46342;49.046;11.920;2023-09-19T11:03:32;21.90;61.70
60495;DHT22;46342;49.046;11.920;2023-09-19T11:09:03;22.00;60.90
60495;DHT22;46342;49.046;11.920;2023-09-19T11:11:45;22.10;60.20
60495;DHT22;46342;49.046;11.920;2023-09-19T11:30:41;22.50;60.70
60495;DHT22;46342;49.046;11.920;2023-09-19T11:33:18;22.60;59.50
60495;DHT22;46342;49.046;11.920;2023-09-19T11:36:12;22.60;59.90
60495;DHT22;46342;49.046;11.920;2023-09-19T11:49:28;23.00;58.60
60495;DHT22;46342;49.046;11.920;2023-09-19T11:51:58;23.00;58.90
60495;DHT22;46342;49.046;11.920;2023-09-19T11:54:31;23.10;59.40
60495;DHT22;46342;49.046;11.920;2023-09-19T11:56:58;23.10;59.30
60495;DHT22;46342;49.046;11.920;2023-09-19T11:59:29;23.20;59.10
60495;DHT22;46342;49.046;11.920;2023-09-19T12:01:58;23.30;59.50
60495;DHT22;46342;49.046;11.920;2023-09-19T12:04:53;23.30;58.60
60495;DHT22;46342;49.046;11.920;2023-09-19T12:07:19;23.40;57.80
60495;DHT22;46342;49.046;11.920;2023-09-19T12:09:48;23.40;58.60
60495;DHT22;46342;49.046;11.920;2023-09-19T12:12:22;23.50;58.30
60495;DHT22;46342;49.046;11.920;2023-09-19T12:14:49;23.60;57.70
60495;DHT22;46342;49.046;11.920;2023-09-19T12:17:18;23.60;58.40
60495;DHT22;46342;49.046;11.920;2023-09-19T12:19:52;23.70;58.30
60495;DHT22;46342;49.046;11.920;2023-09-19T12:22:18;23.80;57.40
60495;DHT22;46342;49.046;11.920;2023-09-19T12:24:46;23.90;57.90
60495;DHT22;46342;49.046;11.920;2023-09-19T12:27:12;23.90;57.50
60495;DHT22;46342;49.046;11.920;2023-09-19T12:29:48;24.10;57.20
60495;DHT22;46342;49.046;11.920;2023-09-19T12:32:15;24.10;55.40
60495;DHT22;46342;49.046;11.920;2023-09-19T12:34:53;24.20;56.80
60495;DHT22;46342;49.046;11.920;2023-09-19T12:37:19;24.20;55.30
60495;DHT22;46342;49.046;11.920;2023-09-19T12:39:52;24.20;56.20
60495;DHT22;46342;49.046;11.920;2023-09-19T12:42:23;24.30;55.30
60495;DHT22;46342;49.046;11.920;2023-09-19T12:44:51;24.40;55.70
60495;DHT22;46342;49.046;11.920;2023-09-19T12:47:22;24.40;55.40
60495;DHT22;46342;49.046;11.920;2023-09-19T12:50:12;24.40;55.50
60495;DHT22;46342;49.046;11.920;2023-09-19T12:52:43;24.50;54.00
60495;DHT22;46342;49.046;11.920;2023-09-19T12:55:31;24.60;54.60
60495;DHT22;46342;49.046;11.920;2023-09-19T12:58:08;24.60;53.80
60495;DHT22;46342;49.046;11.920;2023-09-19T13:00:38;24.60;54.20
60495;DHT22;46342;49.046;11.920;2023-09-19T13:05:53;24.70;53.60
60495;DHT22;46342;49.046;11.920;2023-09-19T13:08:31;24.60;54.60
60495;DHT22;46342;49.046;11.920;2023-09-19T13:11:12;24.60;53.40
60495;DHT22;46342;49.046;11.920;2023-09-19T13:16:05;24.60;54.00
60495;DHT22;46342;49.046;11.920;2023-09-19T13:19:03;24.70;54.30
60495;DHT22;46342;49.046;11.920;2023-09-19T13:21:34;24.60;52.90
60495;DHT22;46342;49.046;11.920;2023-09-19T13:24:23;24.60;53.60
60495;DHT22;46342;49.046;11.920;2023-09-19T13:26:51;24.60;52.90
60495;DHT22;46342;49.046;11.920;2023-09-19T13:29:16;24.60;54.10
60495;DHT22;46342;49.046;11.920;2023-09-19T13:31:47;24.60;54.00
60495;DHT22;46342;49.046;11.920;2023-09-19T13:34:13;24.70;53.50
60495;DHT22;46342;49.046;11.920;2023-09-19T13:36:41;24.70;54.20
60495;DHT22;46342;49.046;11.920;2023-09-19T13:39:08;24.70;54.10
60495;DHT22;46342;49.046;11.920;2023-09-19T13:41:38;24.80;54.00
60495;DHT22;46342;49.046;11.920;2023-09-19T13:44:04;24.80;54.40
60495;DHT22;46342;49.046;11.920;2023-09-19T13:46:31;24.80;53.70
60495;DHT22;46342;49.046;11.920;2023-09-19T13:49:00;25.00;53.60
60495;DHT22;46342;49.046;11.920;2023-09-19T13:51:29;25.00;53.70
60495;DHT22;46342;49.046;11.920;2023-09-19T13:53:55;25.00;53.30
60495;DHT22;46342;49.046;11.920;2023-09-19T13:56:21;25.10;53.10
60495;DHT22;46342;49.046;11.920;2023-09-19T13:58:47;25.10;52.90
60495;DHT22;46342;49.046;11.920;2023-09-19T14:01:12;25.10;52.60
60495;DHT22;46342;49.046;11.920;2023-09-19T14:03:41;25.10;52.30
60495;DHT22;46342;49.046;11.920;2023-09-19T14:06:12;25.20;52.30
60495;DHT22;46342;49.046;11.920;2023-09-19T14:08:38;25.10;52.30
60495;DHT22;46342;49.046;11.920;2023-09-19T14:11:07;25.20;52.20
60495;DHT22;46342;49.046;11.920;2023-09-19T14:13:32;25.20;51.50
60495;DHT22;46342;49.046;11.920;2023-09-19T14:16:03;25.20;51.70
60495;DHT22;46342;49.046;11.920;2023-09-19T14:18:30;25.20;51.00
60495;DHT22;46342;49.046;11.920;2023-09-19T14:20:56;25.20;51.50
60495;DHT22;46342;49.046;11.920;2023-09-19T14:23:21;25.20;51.60
60495;DHT22;46342;49.046;11.920;2023-09-19T14:25:48;25.10;51.60
60495;DHT22;46342;49.046;11.920;2023-09-19T14:28:14;25.20;51.60
60495;DHT22;46342;49.046;11.920;2023-09-19T14:30:39;25.20;51.60
60495;DHT22;46342;49.046;11.920;2023-09-19T14:33:05;25.20;51.50
60495;DHT22;46342;49.046;11.920;2023-09-19T14:35:31;25.20;51.50
60495;DHT22;46342;49.046;11.920;2023-09-19T14:37:57;25.20;51.60
60495;DHT22;46342;49.046;11.920;2023-09-19T14:40:22;25.30;51.60
60495;DHT22;46342;49.046;11.920;2023-09-19T14:42:48;25.20;51.40
60495;DHT22;46342;49.046;11.920;2023-09-19T14:45:13;25.30;51.50
60495;DHT22;46342;49.046;11.920;2023-09-19T14:47:45;25.30;51.40
60495;DHT22;46342;49.046;11.920;2023-09-19T14:50:11;25.30;51.30
60495;DHT22;46342;49.046;11.920;2023-09-19T14:52:37;25.30;51.30
60495;DHT22;46342;49.046;11.920;2023-09-19T14:55:05;25.40;51.30
60495;DHT22;46342;49.046;11.920;2023-09-19T14:57:31;25.40;51.20
60495;DHT22;46342;49.046;11.920;2023-09-19T14:59:57;25.40;51.30
60495;DHT22;46342;49.046;11.920;2023-09-19T15:02:23;25.40;51.10
60495;DHT22;46342;49.046;11.920;2023-09-19T15:04:49;25.40;51.60
60495;DHT22;46342;49.046;11.920;2023-09-19T15:07:16;25.40;51.00
60495;DHT22;46342;49.046;11.920;2023-09-19T15:09:43;25.50;50.90
60495;DHT22;46342;49.046;11.920;2023-09-19T15:12:09;25.50;50.90
60495;DHT22;46342;49.046;11.920;2023-09-19T15:14:40;25.50;50.80
60495;DHT22;46342;49.046;11.920;2023-09-19T15:17:07;25.50;50.70
60495;DHT22;46342;49.046;11.920;2023-09-19T15:19:32;25.60;50.30
60495;DHT22;46342;49.046;11.920;2023-09-19T15:21:58;25.50;50.60
60495;DHT22;46342;49.046;11.920;2023-09-19T15:24:23;25.50;50.40
60495;DHT22;46342;49.046;11.920;2023-09-19T15:26:52;25.50;50.30
60495;DHT22;46342;49.046;11.920;2023-09-19T15:29:17;25.40;50.20
60495;DHT22;46342;49.046;11.920;2023-09-19T15:31:43;25.50;50.20
60495;DHT22;46342;49.046;11.920;2023-09-19T15:34:09;25.40;50.30
60495;DHT22;46342;49.046;11.920;2023-09-19T15:36:34;25.30;50.00
60495;DHT22;46342;49.046;11.920;2023-09-19T15:39:00;25.30;49.90
60495;DHT22;46342;49.046;11.920;2023-09-19T15:41:29;25.30;49.90
60495;DHT22;46342;49.046;11.920;2023-09-19T15:43:56;25.30;49.70
60495;DHT22;46342;49.046;11.920;2023-09-19T15:46:23;25.30;49.70
60495;DHT22;46342;49.046;11.920;2023-09-19T15:48:48;25.30;49.80
60495;DHT22;46342;49.046;11.920;2023-09-19T15:51:14;25.20;49.80
60495;DHT22;46342;49.046;11.920;2023-09-19T15:53:47;25.30;49.90
60495;DHT22;46342;49.046;11.920;2023-09-19T15:56:12;25.30;49.30
60495;DHT22;46342;49.046;11.920;2023-09-19T15:58:40;25.20;49.80
60495;DHT22;46342;49.046;11.920;2023-09-19T16:01:06;25.20;49.50
60495;DHT22;46342;49.046;11.920;2023-09-19T16:03:42;25.20;49.60
60495;DHT22;46342;49.046;11.920;2023-09-19T16:06:16;25.20;49.10
60495;DHT22;46342;49.046;11.920;2023-09-19T16:08:48;25.20;50.10
60495;DHT22;46342;49.046;11.920;2023-09-19T16:11:14;25.20;49.10